createdAt,value
2018-05-21T00:00:14.305Z,0.00
2018-05-21T00:01:14.284Z,0.00
2018-05-21T00:02:14.264Z,0.00
2018-05-21T00:03:14.250Z,0.00
2018-05-21T00:04:14.247Z,0.00
2018-05-21T00:05:14.221Z,0.00
2018-05-21T00:06:14.216Z,0.00
2018-05-21T00:07:14.182Z,0.00
2018-05-21T00:08:14.163Z,0.00
2018-05-21T00:09:14.157Z,0.00
2018-05-21T00:10:14.129Z,0.00
2018-05-21T00:11:14.114Z,0.00
2018-05-21T00:12:14.094Z,0.00
2018-05-21T00:13:14.084Z,0.00
2018-05-21T00:14:14.071Z,0.00
2018-05-21T00:15:14.044Z,0.00
2018-05-21T00:16:14.024Z,0.00
2018-05-21T00:17:14.013Z,0.00
2018-05-21T00:18:13.993Z,0.00
2018-05-21T00:19:13.989Z,0.00
2018-05-21T00:20:13.965Z,0.00
2018-05-21T00:21:13.939Z,0.00
2018-05-21T00:22:13.921Z,0.00
2018-05-21T00:23:13.904Z,0.00
2018-05-21T00:24:13.886Z,0.00
2018-05-21T00:25:13.880Z,0.00
2018-05-21T00:26:13.855Z,0.00
2018-05-21T00:27:13.838Z,0.00
2018-05-21T00:28:13.818Z,0.00
2018-05-21T00:29:13.801Z,0.00
2018-05-21T00:30:13.815Z,0.00
2018-05-21T00:31:13.765Z,0.00
2018-05-21T00:32:13.748Z,0.00
2018-05-21T00:33:13.733Z,0.00
2018-05-21T00:34:13.722Z,0.00
2018-05-21T00:35:13.695Z,0.00
2018-05-21T00:36:13.690Z,0.00
2018-05-21T00:37:13.660Z,0.00
2018-05-21T00:38:15.313Z,0.00
2018-05-21T00:39:13.632Z,0.00
2018-05-21T00:40:13.611Z,0.00
2018-05-21T00:41:13.603Z,0.00
2018-05-21T00:42:13.576Z,0.00
2018-05-21T00:43:13.558Z,0.00
2018-05-21T00:44:13.539Z,0.00
2018-05-21T00:45:13.603Z,0.00
2018-05-21T00:46:13.516Z,0.00
2018-05-21T00:47:13.489Z,0.00
2018-05-21T00:48:13.474Z,0.00
2018-05-21T00:49:13.454Z,0.00
2018-05-21T00:50:13.436Z,0.00
2018-05-21T00:51:13.435Z,0.00
2018-05-21T00:52:13.403Z,0.00
2018-05-21T00:53:13.385Z,0.00
2018-05-21T00:54:13.368Z,0.00
2018-05-21T00:55:13.349Z,0.00
2018-05-21T00:56:13.330Z,0.00
2018-05-21T00:57:13.329Z,0.00
2018-05-21T00:58:13.294Z,0.00
2018-05-21T00:59:13.281Z,0.00
2018-05-21T01:00:13.261Z,0.00
2018-05-21T01:01:13.244Z,0.00
2018-05-21T01:02:13.237Z,0.00
2018-05-21T01:03:13.210Z,0.00
2018-05-21T01:04:13.191Z,0.00
2018-05-21T01:05:13.172Z,0.00
2018-05-21T01:06:13.158Z,0.00
2018-05-21T01:07:13.152Z,0.00
2018-05-21T01:08:13.121Z,0.00
2018-05-21T01:09:13.109Z,0.00
2018-05-21T01:10:13.093Z,0.00
2018-05-21T01:11:13.069Z,0.00
2018-05-21T01:12:13.069Z,0.00
2018-05-21T01:13:13.036Z,0.00
2018-05-21T01:14:13.021Z,0.00
2018-05-21T01:15:13.002Z,0.00
2018-05-21T01:16:12.986Z,0.00
2018-05-21T01:17:12.966Z,0.00
2018-05-21T01:18:12.963Z,0.00
2018-05-21T01:19:12.930Z,0.00
2018-05-21T01:20:12.911Z,0.00
2018-05-21T01:21:12.892Z,0.00
2018-05-21T01:22:12.875Z,0.00
2018-05-21T01:23:12.870Z,0.00
2018-05-21T01:24:12.841Z,0.00
2018-05-21T01:25:12.823Z,0.00
2018-05-21T01:26:12.805Z,0.00
2018-05-21T01:27:12.790Z,0.00
2018-05-21T01:28:12.782Z,0.00
2018-05-21T01:29:12.764Z,0.00
2018-05-21T01:30:12.737Z,0.00
2018-05-21T01:31:12.717Z,0.00
2018-05-21T01:32:12.702Z,0.00
2018-05-21T01:33:12.707Z,0.00
2018-05-21T01:34:12.666Z,0.00
2018-05-21T01:35:12.660Z,0.00
2018-05-21T01:36:12.632Z,0.00
2018-05-21T01:37:12.623Z,0.00
2018-05-21T01:38:12.596Z,0.00
2018-05-21T01:39:12.593Z,0.00
2018-05-21T01:40:12.558Z,0.00
2018-05-21T01:41:12.543Z,0.00
2018-05-21T01:42:12.525Z,0.00
2018-05-21T01:43:12.512Z,0.00
2018-05-21T01:44:12.499Z,0.00
2018-05-21T01:45:12.471Z,0.00
2018-05-21T01:46:12.454Z,0.00
2018-05-21T01:47:12.437Z,0.00
2018-05-21T01:48:12.418Z,0.00
2018-05-21T01:49:12.418Z,0.00
2018-05-21T01:50:12.384Z,0.00
2018-05-21T01:51:12.376Z,0.00
2018-05-21T01:52:12.347Z,0.00
2018-05-21T01:53:12.330Z,0.00
2018-05-21T01:54:12.325Z,0.00
2018-05-21T01:55:12.298Z,0.00
2018-05-21T01:56:12.282Z,0.00
2018-05-21T01:57:12.257Z,0.00
2018-05-21T01:58:12.242Z,0.00
2018-05-21T01:59:12.245Z,0.00
2018-05-21T02:00:12.210Z,0.00
2018-05-21T02:01:12.191Z,0.00
2018-05-21T02:02:12.172Z,0.00
2018-05-21T02:03:12.158Z,0.00
2018-05-21T02:04:12.136Z,0.00
2018-05-21T02:05:12.128Z,0.00
2018-05-21T02:06:12.107Z,0.00
2018-05-21T02:07:12.082Z,0.00
2018-05-21T02:08:12.106Z,0.00
2018-05-21T02:09:12.047Z,0.00
2018-05-21T02:10:12.045Z,0.00
2018-05-21T02:11:12.021Z,0.00
2018-05-21T02:12:11.993Z,0.00
2018-05-21T02:13:11.976Z,0.00
2018-05-21T02:14:11.961Z,0.00
2018-05-21T02:15:11.952Z,0.00
2018-05-21T02:16:11.923Z,0.00
2018-05-21T02:17:11.903Z,0.00
2018-05-21T02:18:11.885Z,0.00
2018-05-21T02:19:11.874Z,0.00
2018-05-21T02:20:11.884Z,0.00
2018-05-21T02:21:11.833Z,0.00
2018-05-21T02:22:11.828Z,0.00
2018-05-21T02:23:11.799Z,0.00
2018-05-21T02:24:11.781Z,0.00
2018-05-21T02:25:11.761Z,0.00
2018-05-21T02:26:11.762Z,0.00
2018-05-21T02:27:11.728Z,0.00
2018-05-21T02:28:11.713Z,0.00
2018-05-21T02:29:11.695Z,0.00
2018-05-21T02:30:11.675Z,0.00
2018-05-21T02:31:11.676Z,0.00
2018-05-21T02:32:11.646Z,0.00
2018-05-21T02:33:11.619Z,0.00
2018-05-21T02:34:11.603Z,0.00
2018-05-21T02:35:11.585Z,0.00
2018-05-21T02:36:11.585Z,0.00
2018-05-21T02:37:11.552Z,0.00
2018-05-21T02:38:11.532Z,0.00
2018-05-21T02:39:11.516Z,0.00
2018-05-21T02:40:11.496Z,0.00
2018-05-21T02:41:11.494Z,0.00
2018-05-21T02:42:11.457Z,0.00
2018-05-21T02:43:11.444Z,0.00
2018-05-21T02:44:11.425Z,0.00
2018-05-21T02:45:11.408Z,0.00
2018-05-21T02:46:11.405Z,0.00
2018-05-21T02:47:11.375Z,0.00
2018-05-21T02:48:11.353Z,0.00
2018-05-21T02:49:11.332Z,0.00
2018-05-21T02:50:11.335Z,0.00
2018-05-21T02:51:11.305Z,0.00
2018-05-21T02:52:11.293Z,0.00
2018-05-21T02:53:11.265Z,0.00
2018-05-21T02:54:11.252Z,0.00
2018-05-21T02:55:11.231Z,0.00
2018-05-21T02:56:11.212Z,0.00
2018-05-21T02:57:11.210Z,4.00
2018-05-21T02:58:11.184Z,4.00
2018-05-21T02:59:11.161Z,4.00
2018-05-21T03:00:11.141Z,0.00
2018-05-21T03:01:11.126Z,0.00
2018-05-21T03:02:11.116Z,4.00
2018-05-21T03:03:11.090Z,4.00
2018-05-21T03:04:11.077Z,4.00
2018-05-21T03:05:11.054Z,4.00
2018-05-21T03:06:11.035Z,4.00
2018-05-21T03:07:11.044Z,8.00
2018-05-21T03:08:11.002Z,4.00
2018-05-21T03:09:10.982Z,4.00
2018-05-21T03:10:10.963Z,8.00
2018-05-21T03:11:10.947Z,8.00
2018-05-21T03:12:10.951Z,8.00
2018-05-21T03:13:10.921Z,12.00
2018-05-21T03:14:10.901Z,12.00
2018-05-21T03:15:10.880Z,16.00
2018-05-21T03:16:10.856Z,16.00
2018-05-21T03:17:10.837Z,20.00
2018-05-21T03:18:10.834Z,24.00
2018-05-21T03:19:10.805Z,24.00
2018-05-21T03:20:10.786Z,24.00
2018-05-21T03:21:10.771Z,28.00
2018-05-21T03:22:10.752Z,32.00
2018-05-21T03:23:10.757Z,36.00
2018-05-21T03:24:10.714Z,40.00
2018-05-21T03:25:10.697Z,40.00
2018-05-21T03:26:10.680Z,44.00
2018-05-21T03:27:10.663Z,52.00
2018-05-21T03:28:10.655Z,60.00
2018-05-21T03:29:10.625Z,68.00
2018-05-21T03:30:10.607Z,80.00
2018-05-21T03:31:10.591Z,88.00
2018-05-21T03:32:10.572Z,100.00
2018-05-21T03:33:10.565Z,112.00
2018-05-21T03:34:10.537Z,124.00
2018-05-21T03:35:10.520Z,136.00
2018-05-21T03:36:10.508Z,152.00
2018-05-21T03:37:10.483Z,168.00
2018-05-21T03:38:10.489Z,184.00
2018-05-21T03:39:10.448Z,204.00
2018-05-21T03:40:10.600Z,220.00
2018-05-21T03:41:10.414Z,244.00
2018-05-21T03:42:10.515Z,272.00
2018-05-21T03:43:11.352Z,296.00
2018-05-21T03:44:10.375Z,324.00
2018-05-21T03:45:10.342Z,348.00
2018-05-21T03:46:10.327Z,372.00
2018-05-21T03:47:10.308Z,388.00
2018-05-21T03:48:10.294Z,408.00
2018-05-21T03:49:10.387Z,432.00
2018-05-21T03:50:11.277Z,452.00
2018-05-21T03:51:10.236Z,484.00
2018-05-21T03:52:10.219Z,516.00
2018-05-21T03:53:10.306Z,560.00
2018-05-21T03:54:10.374Z,604.00
2018-05-21T03:55:10.164Z,648.00
2018-05-21T03:56:10.148Z,700.00
2018-05-21T03:57:10.129Z,744.00
2018-05-21T03:58:10.113Z,772.00
2018-05-21T03:59:10.096Z,792.00
2018-05-21T04:00:10.097Z,808.00
2018-05-21T04:01:10.070Z,816.00
2018-05-21T04:02:10.038Z,832.00
2018-05-21T04:03:10.036Z,860.00
2018-05-21T04:04:10.005Z,900.00
2018-05-21T04:05:10.041Z,948.00
2018-05-21T04:06:09.976Z,1008.00
2018-05-21T04:07:09.965Z,1068.00
2018-05-21T04:08:09.936Z,1120.00
2018-05-21T04:09:09.916Z,1164.00
2018-05-21T04:10:09.899Z,1192.00
2018-05-21T04:11:09.895Z,1208.00
2018-05-21T04:12:09.871Z,1212.00
2018-05-21T04:13:09.851Z,1208.00
2018-05-21T04:14:09.836Z,1200.00
2018-05-21T04:15:09.821Z,1192.00
2018-05-21T04:16:09.807Z,1188.00
2018-05-21T04:17:09.784Z,1188.00
2018-05-21T04:18:09.764Z,1188.00
2018-05-21T04:19:09.743Z,1192.00
2018-05-21T04:20:09.729Z,1200.00
2018-05-21T04:21:09.723Z,1200.00
2018-05-21T04:22:09.690Z,1192.00
2018-05-21T04:23:09.673Z,1188.00
2018-05-21T04:24:09.656Z,1188.00
2018-05-21T04:25:09.641Z,1188.00
2018-05-21T04:26:09.617Z,1196.00
2018-05-21T04:27:09.615Z,1212.00
2018-05-21T04:28:09.585Z,1236.00
2018-05-21T04:29:09.568Z,1276.00
2018-05-21T04:30:09.549Z,1324.00
2018-05-21T04:31:09.536Z,1380.00
2018-05-21T04:32:09.526Z,1436.00
2018-05-21T04:33:09.501Z,1492.00
2018-05-21T04:34:09.487Z,1552.00
2018-05-21T04:35:09.467Z,1628.00
2018-05-21T04:36:09.447Z,1708.00
2018-05-21T04:37:09.444Z,1816.00
2018-05-21T04:38:09.414Z,1944.00
2018-05-21T04:39:09.393Z,2084.00
2018-05-21T04:40:09.378Z,2208.00
2018-05-21T04:41:09.367Z,2296.00
2018-05-21T04:42:09.382Z,2344.00
2018-05-21T04:43:09.328Z,2360.00
2018-05-21T04:44:09.310Z,2344.00
2018-05-21T04:45:09.292Z,2336.00
2018-05-21T04:46:09.277Z,2316.00
2018-05-21T04:47:09.261Z,2276.00
2018-05-21T04:48:09.251Z,2200.00
2018-05-21T04:49:09.224Z,2124.00
2018-05-21T04:50:09.205Z,2064.00
2018-05-21T04:51:09.190Z,2008.00
2018-05-21T04:52:09.176Z,1956.00
2018-05-21T04:53:09.165Z,1920.00
2018-05-21T04:54:09.143Z,1888.00
2018-05-21T04:55:09.123Z,1872.00
2018-05-21T04:56:09.104Z,1856.00
2018-05-21T04:57:09.087Z,1840.00
2018-05-21T04:58:09.082Z,1836.00
2018-05-21T04:59:09.053Z,1844.00
2018-05-21T05:00:09.037Z,1872.00
2018-05-21T05:01:09.017Z,1900.00
2018-05-21T05:02:09.003Z,1940.00
2018-05-21T05:03:08.998Z,1992.00
2018-05-21T05:04:08.966Z,2056.00
2018-05-21T05:05:08.950Z,2136.00
2018-05-21T05:06:08.945Z,2220.00
2018-05-21T05:07:08.918Z,2316.00
2018-05-21T05:08:08.911Z,2416.00
2018-05-21T05:09:08.883Z,2464.00
2018-05-21T05:10:08.863Z,2496.00
2018-05-21T05:11:08.852Z,2536.00
2018-05-21T05:12:08.826Z,2584.00
2018-05-21T05:13:08.829Z,2608.00
2018-05-21T05:14:08.817Z,2640.00
2018-05-21T05:15:08.783Z,2676.00
2018-05-21T05:16:08.762Z,2712.00
2018-05-21T05:17:08.747Z,2736.00
2018-05-21T05:18:08.732Z,2736.00
2018-05-21T05:19:08.720Z,2712.00
2018-05-21T05:20:08.697Z,2684.00
2018-05-21T05:21:08.689Z,2644.00
2018-05-21T05:22:08.658Z,2596.00
2018-05-21T05:23:08.649Z,2528.00
2018-05-21T05:24:08.634Z,2476.00
2018-05-21T05:25:08.609Z,2432.00
2018-05-21T05:26:08.591Z,2408.00
2018-05-21T05:27:08.579Z,2404.00
2018-05-21T05:28:08.554Z,2420.00
2018-05-21T05:29:08.550Z,2444.00
2018-05-21T05:30:08.521Z,2464.00
2018-05-21T05:31:08.510Z,2472.00
2018-05-21T05:32:08.488Z,2472.00
2018-05-21T05:33:08.472Z,2476.00
2018-05-21T05:34:08.455Z,2492.00
2018-05-21T05:35:08.449Z,2504.00
2018-05-21T05:36:08.484Z,2528.00
2018-05-21T05:37:08.401Z,2568.00
2018-05-21T05:38:08.386Z,2632.00
2018-05-21T05:39:08.380Z,2732.00
2018-05-21T05:40:08.360Z,2852.00
2018-05-21T05:41:08.333Z,2996.00
2018-05-21T05:42:08.352Z,3184.00
2018-05-21T05:43:08.307Z,3420.00
2018-05-21T05:44:08.284Z,3676.00
2018-05-21T05:45:08.284Z,4096.00
2018-05-21T05:46:08.251Z,4312.00
2018-05-21T05:47:08.232Z,4608.00
2018-05-21T05:48:08.216Z,4924.00
2018-05-21T05:49:08.236Z,5136.00
2018-05-21T05:50:08.196Z,5252.00
2018-05-21T05:51:08.167Z,5280.00
2018-05-21T05:52:08.153Z,5280.00
2018-05-21T05:53:08.131Z,5232.00
2018-05-21T05:54:08.116Z,5168.00
2018-05-21T05:55:08.119Z,5064.00
2018-05-21T05:56:08.084Z,4872.00
2018-05-21T05:57:08.067Z,4808.00
2018-05-21T05:58:08.050Z,4784.00
2018-05-21T05:59:08.039Z,4708.00
2018-05-21T06:00:08.018Z,4572.00
2018-05-21T06:01:08.015Z,4524.00
2018-05-21T06:02:07.981Z,4436.00
2018-05-21T06:03:07.969Z,4244.00
2018-05-21T06:04:07.956Z,4176.00
2018-05-21T06:05:07.939Z,4180.00
2018-05-21T06:06:07.935Z,4060.00
2018-05-21T06:07:07.908Z,4008.00
2018-05-21T06:08:07.897Z,4064.00
2018-05-21T06:09:07.878Z,3996.00
2018-05-21T06:10:07.861Z,4188.00
2018-05-21T06:11:07.867Z,4244.00
2018-05-21T06:12:07.831Z,4268.00
2018-05-21T06:13:07.817Z,4296.00
2018-05-21T06:14:07.800Z,4324.00
2018-05-21T06:15:07.787Z,4328.00
2018-05-21T06:16:07.789Z,4372.00
2018-05-21T06:17:07.757Z,4424.00
2018-05-21T06:18:07.746Z,4468.00
2018-05-21T06:19:07.728Z,4488.00
2018-05-21T06:20:07.712Z,4476.00
2018-05-21T06:21:07.704Z,4436.00
2018-05-21T06:22:07.694Z,4400.00
2018-05-21T06:23:07.674Z,4368.00
2018-05-21T06:24:07.652Z,4348.00
2018-05-21T06:25:07.636Z,4352.00
2018-05-21T06:26:07.643Z,4376.00
2018-05-21T06:27:07.621Z,4376.00
2018-05-21T06:28:07.596Z,4372.00
2018-05-21T06:29:07.580Z,4352.00
2018-05-21T06:30:07.566Z,4132.00
2018-05-21T06:31:07.554Z,4084.00
2018-05-21T06:32:07.554Z,4300.00
2018-05-21T06:33:07.522Z,4264.00
2018-05-21T06:34:07.570Z,4248.00
2018-05-21T06:35:07.501Z,4284.00
2018-05-21T06:36:07.483Z,4312.00
2018-05-21T06:37:07.484Z,4356.00
2018-05-21T06:38:07.454Z,4416.00
2018-05-21T06:39:07.444Z,4536.00
2018-05-21T06:40:07.461Z,4628.00
2018-05-21T06:41:07.420Z,4696.00
2018-05-21T06:42:07.421Z,4612.00
2018-05-21T06:43:07.392Z,4624.00
2018-05-21T06:44:07.369Z,4576.00
2018-05-21T06:45:07.360Z,4524.00
2018-05-21T06:46:07.416Z,4500.00
2018-05-21T06:47:07.342Z,4484.00
2018-05-21T06:48:07.327Z,4472.00
2018-05-21T06:49:07.304Z,4416.00
2018-05-21T06:50:07.288Z,4412.00
2018-05-21T06:51:07.275Z,4408.00
2018-05-21T06:52:07.262Z,4384.00
2018-05-21T06:53:07.259Z,4368.00
2018-05-21T06:54:07.233Z,4352.00
2018-05-21T06:55:07.226Z,4320.00
2018-05-21T06:56:07.210Z,4284.00
2018-05-21T06:57:07.191Z,4260.00
2018-05-21T06:58:07.192Z,4252.00
2018-05-21T06:59:07.167Z,4264.00
2018-05-21T07:00:07.152Z,4272.00
2018-05-21T07:01:07.143Z,4292.00
2018-05-21T07:02:07.125Z,4328.00
2018-05-21T07:03:07.129Z,4372.00
2018-05-21T07:04:07.099Z,4388.00
2018-05-21T07:05:07.087Z,4408.00
2018-05-21T07:06:07.082Z,4416.00
2018-05-21T07:07:07.060Z,4444.00
2018-05-21T07:08:07.059Z,4452.00
2018-05-21T07:09:07.032Z,4476.00
2018-05-21T07:10:07.018Z,4512.00
2018-05-21T07:11:07.006Z,4548.00
2018-05-21T07:12:06.992Z,4568.00
2018-05-21T07:13:06.975Z,4568.00
2018-05-21T07:14:06.975Z,4556.00
2018-05-21T07:15:06.957Z,4556.00
2018-05-21T07:16:06.939Z,4556.00
2018-05-21T07:17:06.925Z,4564.00
2018-05-21T07:18:06.972Z,4564.00
2018-05-21T07:19:06.912Z,4572.00
2018-05-21T07:20:06.893Z,4572.00
2018-05-21T07:21:06.878Z,4544.00
2018-05-21T07:22:06.868Z,4472.00
2018-05-21T07:23:06.849Z,4392.00
2018-05-21T07:24:06.851Z,4356.00
2018-05-21T07:25:06.819Z,4344.00
2018-05-21T07:26:06.812Z,4324.00
2018-05-21T07:27:06.800Z,4308.00
2018-05-21T07:28:06.786Z,4284.00
2018-05-21T07:29:06.776Z,4272.00
2018-05-21T07:30:06.805Z,4272.00
2018-05-21T07:31:06.747Z,4272.00
2018-05-21T07:32:06.740Z,4284.00
2018-05-21T07:33:06.721Z,4292.00
2018-05-21T07:34:06.710Z,4296.00
2018-05-21T07:35:06.708Z,4292.00
2018-05-21T07:36:06.682Z,4304.00
2018-05-21T07:37:06.669Z,4324.00
2018-05-21T07:38:06.659Z,4340.00
2018-05-21T07:39:06.646Z,4360.00
2018-05-21T07:40:06.643Z,4372.00
2018-05-21T07:41:06.631Z,4404.00
2018-05-21T07:42:06.614Z,4420.00
2018-05-21T07:43:06.604Z,4456.00
2018-05-21T07:44:06.580Z,4468.00
2018-05-21T07:45:06.580Z,4476.00
2018-05-21T07:46:06.554Z,4468.00
2018-05-21T07:47:06.544Z,4460.00
2018-05-21T07:48:06.532Z,4456.00
2018-05-21T07:49:06.517Z,4456.00
2018-05-21T07:50:06.515Z,4456.00
2018-05-21T07:51:06.494Z,4464.00
2018-05-21T07:52:06.475Z,4472.00
2018-05-21T07:53:06.466Z,4464.00
2018-05-21T07:54:06.455Z,4464.00
2018-05-21T07:55:06.435Z,4468.00
2018-05-21T07:56:06.436Z,4464.00
2018-05-21T07:57:06.411Z,4452.00
2018-05-21T07:58:06.394Z,4460.00
2018-05-21T07:59:06.389Z,4468.00
2018-05-21T08:00:06.370Z,4464.00
2018-05-21T08:01:06.366Z,4488.00
2018-05-21T08:02:06.345Z,4504.00
2018-05-21T08:03:06.332Z,4520.00
2018-05-21T08:04:06.327Z,4524.00
2018-05-21T08:05:06.313Z,4532.00
2018-05-21T08:06:06.301Z,4564.00
2018-05-21T08:07:06.276Z,4608.00
2018-05-21T08:08:06.262Z,4644.00
2018-05-21T08:09:06.265Z,4676.00
2018-05-21T08:10:06.239Z,4720.00
2018-05-21T08:11:06.241Z,4760.00
2018-05-21T08:12:06.212Z,4800.00
2018-05-21T08:13:06.204Z,4868.00
2018-05-21T08:14:06.186Z,4924.00
2018-05-21T08:15:06.171Z,5004.00
2018-05-21T08:16:06.171Z,5104.00
2018-05-21T08:17:06.158Z,5212.00
2018-05-21T08:18:06.133Z,5308.00
2018-05-21T08:19:06.123Z,5404.00
2018-05-21T08:20:06.121Z,5496.00
2018-05-21T08:21:06.188Z,5592.00
2018-05-21T08:22:06.569Z,5660.00
2018-05-21T08:23:06.068Z,5724.00
2018-05-21T08:24:06.285Z,5796.00
2018-05-21T08:25:06.057Z,5852.00
2018-05-21T08:26:06.066Z,5920.00
2018-05-21T08:27:06.173Z,5952.00
2018-05-21T08:28:06.129Z,6000.00
2018-05-21T08:29:06.026Z,6012.00
2018-05-21T08:30:05.982Z,5980.00
2018-05-21T08:31:05.968Z,5980.00
2018-05-21T08:32:05.966Z,5984.00
2018-05-21T08:33:05.939Z,6048.00
2018-05-21T08:34:05.934Z,6136.00
2018-05-21T08:35:05.920Z,6232.00
2018-05-21T08:36:05.905Z,6324.00
2018-05-21T08:37:06.624Z,6440.00
2018-05-21T08:38:05.922Z,6548.00
2018-05-21T08:39:05.870Z,6580.00
2018-05-21T08:40:05.849Z,6652.00
2018-05-21T08:41:05.846Z,6724.00
2018-05-21T08:42:05.827Z,6736.00
2018-05-21T08:43:05.831Z,6700.00
2018-05-21T08:44:05.798Z,6684.00
2018-05-21T08:45:05.795Z,6696.00
2018-05-21T08:46:05.777Z,6688.00
2018-05-21T08:47:05.769Z,6676.00
2018-05-21T08:48:05.862Z,6648.00
2018-05-21T08:49:05.745Z,6688.00
2018-05-21T08:50:05.727Z,6708.00
2018-05-21T08:51:05.729Z,6700.00
2018-05-21T08:52:05.705Z,6640.00
2018-05-21T08:53:05.727Z,6520.00
2018-05-21T08:54:05.678Z,6408.00
2018-05-21T08:55:05.678Z,6360.00
2018-05-21T08:56:05.653Z,6360.00
2018-05-21T08:57:05.638Z,6364.00
2018-05-21T08:58:05.641Z,6364.00
2018-05-21T08:59:05.614Z,6360.00
2018-05-21T09:00:05.685Z,6356.00
2018-05-21T09:01:05.595Z,6312.00
2018-05-21T09:02:05.882Z,6308.00
2018-05-21T09:03:05.566Z,6352.00
2018-05-21T09:04:05.560Z,6392.00
2018-05-21T09:05:05.542Z,6388.00
2018-05-21T09:06:05.531Z,6372.00
2018-05-21T09:07:05.520Z,6352.00
2018-05-21T09:08:05.584Z,6372.00
2018-05-21T09:09:05.629Z,6416.00
2018-05-21T09:10:05.495Z,6444.00
2018-05-21T09:11:05.468Z,6412.00
2018-05-21T09:12:05.461Z,6392.00
2018-05-21T09:13:05.448Z,6436.00
2018-05-21T09:14:05.441Z,6548.00
2018-05-21T09:15:05.439Z,6704.00
2018-05-21T09:16:05.726Z,6916.00
2018-05-21T09:17:05.400Z,7112.00
2018-05-21T09:18:05.385Z,7320.00
2018-05-21T09:19:05.415Z,7476.00
2018-05-21T09:20:05.388Z,7564.00
2018-05-21T09:21:05.511Z,7540.00
2018-05-21T09:22:05.360Z,7636.00
2018-05-21T09:23:05.329Z,7776.00
2018-05-21T09:24:05.307Z,7888.00
2018-05-21T09:25:05.313Z,7912.00
2018-05-21T09:26:05.336Z,8060.00
2018-05-21T09:27:05.275Z,8156.00
2018-05-21T09:28:05.267Z,8144.00
2018-05-21T09:29:05.265Z,7940.00
2018-05-21T09:30:05.254Z,7568.00
2018-05-21T09:31:05.227Z,7592.00
2018-05-21T09:32:05.214Z,7476.00
2018-05-21T09:33:05.206Z,7468.00
2018-05-21T09:34:05.193Z,7524.00
2018-05-21T09:35:05.194Z,7648.00
2018-05-21T09:36:05.167Z,7772.00
2018-05-21T09:37:05.156Z,7932.00
2018-05-21T09:38:05.144Z,8236.00
2018-05-21T09:39:05.164Z,8508.00
2018-05-21T09:40:05.127Z,8708.00
2018-05-21T09:41:05.111Z,8824.00
2018-05-21T09:42:05.139Z,8892.00
2018-05-21T09:43:05.087Z,8996.00
2018-05-21T09:44:05.074Z,9296.00
2018-05-21T09:45:05.079Z,9544.00
2018-05-21T09:46:05.054Z,9740.00
2018-05-21T09:47:05.043Z,9952.00
2018-05-21T09:48:05.092Z,10360.00
2018-05-21T09:49:05.020Z,10640.00
2018-05-21T09:50:05.006Z,10708.00
2018-05-21T09:51:05.005Z,10720.00
2018-05-21T09:52:04.993Z,10708.00
2018-05-21T09:53:04.976Z,10596.00
2018-05-21T09:54:04.962Z,10604.00
2018-05-21T09:55:04.949Z,10604.00
2018-05-21T09:56:04.951Z,10392.00
2018-05-21T09:57:04.930Z,10124.00
2018-05-21T09:58:04.921Z,9924.00
2018-05-21T09:59:04.904Z,9724.00
2018-05-21T10:00:04.900Z,9500.00
2018-05-21T10:01:04.894Z,9408.00
2018-05-21T10:02:04.875Z,9536.00
2018-05-21T10:03:04.860Z,9812.00
2018-05-21T10:04:04.853Z,10148.00
2018-05-21T10:05:04.838Z,10340.00
2018-05-21T10:06:04.868Z,10584.00
2018-05-21T10:07:04.832Z,10756.00
2018-05-21T10:08:04.803Z,10860.00
2018-05-21T10:09:04.796Z,10992.00
2018-05-21T10:10:04.785Z,10988.00
2018-05-21T10:11:04.777Z,11196.00
2018-05-21T10:12:04.784Z,11232.00
2018-05-21T10:13:04.749Z,11068.00
2018-05-21T10:14:04.745Z,10740.00
2018-05-21T10:15:04.729Z,10308.00
2018-05-21T10:16:04.724Z,10000.00
2018-05-21T10:17:04.722Z,9684.00
2018-05-21T10:18:04.698Z,9520.00
2018-05-21T10:19:04.691Z,9300.00
2018-05-21T10:20:04.676Z,9328.00
2018-05-21T10:21:04.666Z,9328.00
2018-05-21T10:22:04.665Z,9352.00
2018-05-21T10:23:04.644Z,9352.00
2018-05-21T10:24:04.630Z,9280.00
2018-05-21T10:25:04.627Z,8972.00
2018-05-21T10:26:04.649Z,8968.00
2018-05-21T10:27:04.620Z,8544.00
2018-05-21T10:28:04.592Z,8480.00
2018-05-21T10:29:04.578Z,8392.00
2018-05-21T10:30:04.571Z,8392.00
2018-05-21T10:31:04.562Z,8592.00
2018-05-21T10:32:04.567Z,8744.00
2018-05-21T10:33:04.539Z,9108.00
2018-05-21T10:34:04.532Z,9120.00
2018-05-21T10:35:04.516Z,9316.00
2018-05-21T10:36:04.521Z,9352.00
2018-05-21T10:37:04.609Z,9324.00
2018-05-21T10:38:04.494Z,9288.00
2018-05-21T10:39:04.489Z,9184.00
2018-05-21T10:40:04.461Z,8900.00
2018-05-21T10:41:04.455Z,8804.00
2018-05-21T10:42:04.446Z,8768.00
2018-05-21T10:43:04.438Z,8596.00
2018-05-21T10:44:04.426Z,8632.00
2018-05-21T10:45:04.415Z,8492.00
2018-05-21T10:46:04.398Z,8400.00
2018-05-21T10:47:04.387Z,8392.00
2018-05-21T10:48:04.398Z,8320.00
2018-05-21T10:49:04.366Z,8376.00
2018-05-21T10:50:04.357Z,8364.00
2018-05-21T10:51:04.351Z,8268.00
2018-05-21T10:52:04.331Z,8132.00
2018-05-21T10:53:04.337Z,8056.00
2018-05-21T10:54:04.317Z,8060.00
2018-05-21T10:55:04.301Z,8064.00
2018-05-21T10:56:04.297Z,8192.00
2018-05-21T10:57:04.287Z,8368.00
2018-05-21T10:58:04.271Z,8484.00
2018-05-21T10:59:04.271Z,8636.00
2018-05-21T11:00:04.247Z,8880.00
2018-05-21T11:01:04.240Z,9212.00
2018-05-21T11:02:04.227Z,9688.00
2018-05-21T11:03:04.263Z,10108.00
2018-05-21T11:04:04.215Z,10744.00
2018-05-21T11:05:04.193Z,11360.00
2018-05-21T11:06:04.190Z,11616.00
2018-05-21T11:07:04.176Z,11508.00
2018-05-21T11:08:04.161Z,10688.00
2018-05-21T11:09:04.165Z,10608.00
2018-05-21T11:10:04.143Z,11008.00
2018-05-21T11:11:04.133Z,11476.00
2018-05-21T11:12:04.124Z,11508.00
2018-05-21T11:13:04.109Z,11660.00
2018-05-21T11:14:04.108Z,11928.00
2018-05-21T11:15:04.087Z,12004.00
2018-05-21T11:16:04.077Z,11968.00
2018-05-21T11:17:04.065Z,12048.00
2018-05-21T11:18:04.055Z,12168.00
2018-05-21T11:19:04.056Z,12392.00
2018-05-21T11:20:04.031Z,12636.00
2018-05-21T11:21:04.023Z,12872.00
2018-05-21T11:22:04.013Z,13232.00
2018-05-21T11:23:04.003Z,13536.00
2018-05-21T11:24:03.999Z,13556.00
2018-05-21T11:25:03.985Z,13412.00
2018-05-21T11:26:03.974Z,13284.00
2018-05-21T11:27:03.966Z,13072.00
2018-05-21T11:28:03.961Z,12992.00
2018-05-21T11:29:03.965Z,12880.00
2018-05-21T11:30:03.929Z,12876.00
2018-05-21T11:31:03.924Z,12892.00
2018-05-21T11:32:04.024Z,12724.00
2018-05-21T11:33:03.897Z,12512.00
2018-05-21T11:34:03.966Z,12300.00
2018-05-21T11:35:03.900Z,12076.00
2018-05-21T11:36:03.876Z,12112.00
2018-05-21T11:37:03.858Z,12408.00
2018-05-21T11:38:03.850Z,12616.00
2018-05-21T11:39:03.864Z,12968.00
2018-05-21T11:40:03.836Z,13052.00
2018-05-21T11:41:03.817Z,13376.00
2018-05-21T11:42:03.808Z,13016.00
2018-05-21T11:43:03.803Z,13588.00
2018-05-21T11:44:03.786Z,13852.00
2018-05-21T11:45:03.792Z,13848.00
2018-05-21T11:46:03.775Z,13460.00
2018-05-21T11:47:03.759Z,13876.00
2018-05-21T11:48:03.757Z,13840.00
2018-05-21T11:49:03.748Z,14040.00
2018-05-21T11:50:03.747Z,14268.00
2018-05-21T11:51:03.721Z,14104.00
2018-05-21T11:52:03.708Z,13808.00
2018-05-21T11:53:03.705Z,13780.00
2018-05-21T11:54:03.689Z,13864.00
2018-05-21T11:55:03.692Z,13852.00
2018-05-21T11:56:03.675Z,14076.00
2018-05-21T11:57:03.662Z,14112.00
2018-05-21T11:58:03.651Z,13932.00
2018-05-21T11:59:03.645Z,13724.00
2018-05-21T12:00:03.659Z,13460.00
2018-05-21T12:01:03.620Z,13136.00
2018-05-21T12:02:03.638Z,13052.00
2018-05-21T12:03:03.602Z,12956.00
2018-05-21T12:04:03.599Z,12856.00
2018-05-21T12:05:03.589Z,12608.00
2018-05-21T12:06:03.583Z,12352.00
2018-05-21T12:07:03.564Z,12144.00
2018-05-21T12:08:03.556Z,12124.00
2018-05-21T12:09:03.550Z,12148.00
2018-05-21T12:10:03.538Z,12156.00
2018-05-21T12:11:03.536Z,12112.00
2018-05-21T12:12:03.533Z,12088.00
2018-05-21T12:13:03.507Z,12108.00
2018-05-21T12:14:03.502Z,12140.00
2018-05-21T12:15:03.799Z,11936.00
2018-05-21T12:16:03.980Z,12200.00
2018-05-21T12:17:03.510Z,12380.00
2018-05-21T12:18:03.466Z,12288.00
2018-05-21T12:19:03.503Z,12360.00
2018-05-21T12:20:03.457Z,12328.00
2018-05-21T12:21:03.442Z,12504.00
2018-05-21T12:22:03.700Z,12740.00